createdAt,value
2022-08-09T00:01:40.310Z,15.70
2022-08-09T00:04:33.987Z,15.70
2022-08-09T00:07:10.383Z,15.70
2022-08-09T00:09:39.883Z,15.70
2022-08-09T00:12:09.221Z,15.60
2022-08-09T00:14:56.726Z,15.60
2022-08-09T00:18:05.488Z,15.60
2022-08-09T00:20:15.418Z,15.50
2022-08-09T00:22:44.855Z,15.60
2022-08-09T00:25:23.033Z,15.60
2022-08-09T00:28:00.505Z,15.60
2022-08-09T00:30:34.060Z,15.60
2022-08-09T00:33:02.525Z,15.60
2022-08-09T00:35:42.868Z,15.60
2022-08-09T00:38:12.989Z,15.60
2022-08-09T00:40:41.676Z,15.60
2022-08-09T00:44:19.305Z,15.70
2022-08-09T00:46:28.387Z,15.70
2022-08-09T00:49:01.820Z,15.70
2022-08-09T00:51:33.855Z,15.60
2022-08-09T00:54:11.481Z,15.60
2022-08-09T00:56:39.932Z,15.50
2022-08-09T00:59:10.214Z,15.50
2022-08-09T01:01:44.615Z,15.50
2022-08-09T01:04:23.401Z,15.50
2022-08-09T01:07:05.259Z,15.50
2022-08-09T01:09:41.426Z,15.50
2022-08-09T01:12:18.960Z,15.50
2022-08-09T01:14:54.082Z,15.50
2022-08-09T01:17:34.304Z,15.40
2022-08-09T01:20:06.959Z,15.40
2022-08-09T01:22:55.027Z,15.40
2022-08-09T01:25:41.868Z,15.50
2022-08-09T01:28:13.027Z,15.50
2022-08-09T01:30:51.516Z,15.50
2022-08-09T01:33:27.306Z,15.40
2022-08-09T01:36:05.348Z,15.40
2022-08-09T01:38:39.980Z,15.40
2022-08-09T01:41:13.243Z,15.30
2022-08-09T01:43:50.640Z,15.30
2022-08-09T01:46:25.163Z,15.30
2022-08-09T01:48:59.813Z,15.20
2022-08-09T01:51:32.159Z,15.10
2022-08-09T01:54:04.328Z,15.10
2022-08-09T01:56:34.425Z,15.10
2022-08-09T01:59:10.825Z,15.10
2022-08-09T02:01:59.772Z,15.10
2022-08-09T02:04:32.943Z,15.00
2022-08-09T02:07:18.074Z,15.00
2022-08-09T02:10:09.603Z,15.00
2022-08-09T02:12:40.069Z,15.00
2022-08-09T02:15:17.022Z,15.00
2022-08-09T02:18:00.425Z,14.90
2022-08-09T02:20:42.580Z,14.90
2022-08-09T02:23:18.765Z,14.80
2022-08-09T02:25:55.921Z,14.80
2022-08-09T02:28:31.473Z,14.80
2022-08-09T02:31:05.849Z,14.80
2022-08-09T02:34:07.467Z,14.80
2022-08-09T02:36:33.521Z,14.70
2022-08-09T02:39:06.650Z,14.80
2022-08-09T02:41:45.974Z,14.80
2022-08-09T02:44:29.153Z,14.80
2022-08-09T02:47:04.451Z,14.70
2022-08-09T02:49:38.377Z,14.60
2022-08-09T02:52:13.602Z,14.60
2022-08-09T02:54:54.353Z,14.50
2022-08-09T02:57:27.152Z,14.50
2022-08-09T03:00:20.721Z,14.50
2022-08-09T03:02:59.721Z,14.40
2022-08-09T03:05:34.193Z,14.40
2022-08-09T03:08:04.633Z,14.40
2022-08-09T03:10:35.996Z,14.40
2022-08-09T03:13:08.423Z,14.30
2022-08-09T03:16:06.789Z,14.30
2022-08-09T03:18:31.610Z,14.20
2022-08-09T03:21:03.019Z,14.10
2022-08-09T03:23:32.042Z,14.20
2022-08-09T03:26:03.627Z,14.20
2022-08-09T03:28:35.043Z,14.20
2022-08-09T03:31:10.498Z,14.20
2022-08-09T03:33:54.128Z,14.20
2022-08-09T03:36:27.611Z,14.20
2022-08-09T03:38:57.797Z,14.20
2022-08-09T03:41:29.934Z,14.30
2022-08-09T03:44:15.533Z,14.40
2022-08-09T03:46:45.016Z,14.40
2022-08-09T03:49:19.214Z,14.50
2022-08-09T03:51:58.864Z,14.80
2022-08-09T03:54:34.432Z,14.90
2022-08-09T03:57:18.725Z,15.00
2022-08-09T03:59:54.360Z,15.30
2022-08-09T04:02:28.190Z,15.90
2022-08-09T04:05:06.458Z,16.40
2022-08-09T04:07:53.555Z,16.90
2022-08-09T04:10:29.195Z,17.40
2022-08-09T04:13:02.651Z,18.10
2022-08-09T04:15:42.797Z,18.50
2022-08-09T04:18:22.424Z,18.70
2022-08-09T04:20:55.551Z,19.20
2022-08-09T04:23:25.754Z,19.80
2022-08-09T04:25:55.760Z,20.40
2022-08-09T04:28:34.099Z,21.10
2022-08-09T04:31:08.177Z,21.30
2022-08-09T04:33:52.333Z,21.70
2022-08-09T04:36:26.017Z,21.80
2022-08-09T04:38:55.590Z,21.80
2022-08-09T04:41:32.207Z,22.20
2022-08-09T04:44:07.349Z,22.10
2022-08-09T04:46:57.334Z,22.30
2022-08-09T04:49:53.240Z,22.80
2022-08-09T04:52:27.082Z,23.00
2022-08-09T04:55:07.248Z,23.20
2022-08-09T04:57:53.899Z,23.00
2022-08-09T05:00:31.927Z,23.50
2022-08-09T05:03:12.762Z,23.60
2022-08-09T05:06:07.091Z,24.00
2022-08-09T05:08:37.468Z,24.30
2022-08-09T05:11:07.747Z,24.60
2022-08-09T05:13:38.775Z,24.60
2022-08-09T05:16:10.180Z,24.80
2022-08-09T05:18:57.623Z,25.10
2022-08-09T05:21:30.095Z,25.50
2022-08-09T05:24:09.074Z,25.50
2022-08-09T05:26:46.178Z,25.40
2022-08-09T05:29:21.994Z,25.90
2022-08-09T05:31:56.405Z,25.80
2022-08-09T05:34:30.597Z,25.80
2022-08-09T05:37:11.282Z,25.80
2022-08-09T05:39:44.732Z,25.70
2022-08-09T05:42:17.677Z,26.40
2022-08-09T05:44:52.503Z,26.30
2022-08-09T05:47:22.712Z,26.60
2022-08-09T05:50:25.157Z,26.30
2022-08-09T05:52:41.858Z,26.50
2022-08-09T05:55:18.226Z,26.40
2022-08-09T05:57:50.891Z,26.70
2022-08-09T06:00:28.996Z,27.30
2022-08-09T06:03:01.537Z,27.30
2022-08-09T06:05:56.970Z,27.40
2022-08-09T06:08:25.182Z,27.40
2022-08-09T06:10:57.054Z,26.90
2022-08-09T06:13:28.621Z,26.90
2022-08-09T06:16:04.921Z,27.20
2022-08-09T06:18:34.413Z,27.80
2022-08-09T06:21:04.241Z,28.00
2022-08-09T06:23:58.662Z,28.20
2022-08-09T06:26:28.366Z,28.30
2022-08-09T06:29:00.282Z,28.40
2022-08-09T06:31:40.265Z,28.70
2022-08-09T06:34:19.162Z,28.60
2022-08-09T06:36:47.780Z,28.10
2022-08-09T06:39:17.664Z,27.80
2022-08-09T06:42:08.683Z,27.70
2022-08-09T06:44:38.897Z,28.00
2022-08-09T06:47:08.412Z,28.00
2022-08-09T06:50:11.475Z,27.90
2022-08-09T06:52:25.616Z,26.90
2022-08-09T06:54:54.357Z,26.50
2022-08-09T06:58:01.868Z,25.90
2022-08-09T07:00:54.165Z,25.30
2022-08-09T07:03:05.449Z,24.90
2022-08-09T07:05:58.185Z,25.30
2022-08-09T07:08:24.798Z,25.20
2022-08-09T07:10:53.713Z,24.70
2022-08-09T07:13:27.975Z,25.10
2022-08-09T07:16:42.478Z,24.80
2022-08-09T07:18:47.589Z,24.40
2022-08-09T07:21:18.844Z,24.00
2022-08-09T07:23:57.754Z,24.40
2022-08-09T07:26:27.019Z,24.80
2022-08-09T07:29:08.935Z,24.50
2022-08-09T07:31:45.313Z,23.90
2022-08-09T07:34:20.304Z,23.80
2022-08-09T07:36:50.650Z,23.40
2022-08-09T07:39:41.616Z,23.20
2022-08-09T07:42:11.520Z,23.10
2022-08-09T07:44:51.965Z,23.10
2022-08-09T07:47:23.532Z,22.80
2022-08-09T07:50:08.331Z,22.50
2022-08-09T07:52:38.522Z,22.30
2022-08-09T07:55:09.507Z,22.40
2022-08-09T07:57:47.318Z,22.50
2022-08-09T08:00:20.853Z,22.40
2022-08-09T08:03:08.450Z,22.50
2022-08-09T08:05:53.511Z,22.50
2022-08-09T08:09:01.542Z,22.60
2022-08-09T08:12:10.852Z,22.60
2022-08-09T08:14:01.884Z,22.70
2022-08-09T08:16:33.069Z,22.60
2022-08-09T08:19:04.358Z,22.60
2022-08-09T08:21:33.673Z,22.80
2022-08-09T08:24:12.238Z,23.00
2022-08-09T08:26:54.660Z,23.20
2022-08-09T08:29:28.216Z,23.20
2022-08-09T08:32:03.336Z,23.30
2022-08-09T08:34:33.666Z,23.50
2022-08-09T08:37:03.357Z,23.60
2022-08-09T08:39:39.966Z,23.90
2022-08-09T08:42:12.922Z,24.10
2022-08-09T08:44:43.726Z,24.20
2022-08-09T08:47:15.891Z,24.10
2022-08-09T08:49:47.232Z,24.10
2022-08-09T08:55:08.602Z,24.00
2022-08-09T08:57:38.038Z,24.00
2022-08-09T09:00:16.951Z,24.30
2022-08-09T09:02:53.695Z,24.50
2022-08-09T09:05:57.378Z,24.80
2022-08-09T09:08:31.009Z,24.70
2022-08-09T09:11:03.660Z,24.80
2022-08-09T09:13:55.735Z,24.80
2022-08-09T09:16:30.629Z,24.50
2022-08-09T09:22:00.716Z,24.30
2022-08-09T09:24:34.662Z,24.20
2022-08-09T09:27:05.723Z,24.20
2022-08-09T09:30:08.417Z,24.30
2022-08-09T09:32:32.201Z,24.60
2022-08-09T09:35:07.586Z,24.70
2022-08-09T09:37:40.346Z,25.00
2022-08-09T09:40:12.271Z,25.30
2022-08-09T09:42:43.123Z,25.40
2022-08-09T09:45:26.877Z,24.90
2022-08-09T09:47:58.529Z,24.90
2022-08-09T09:50:50.703Z,25.10
2022-08-09T09:53:25.211Z,25.30
2022-08-09T09:56:19.811Z,25.20
2022-08-09T09:59:00.188Z,25.00
2022-08-09T10:01:36.796Z,24.90
2022-08-09T10:04:16.342Z,25.00
2022-08-09T10:07:03.627Z,25.20
2022-08-09T10:09:55.038Z,25.00
2022-08-09T10:12:31.336Z,24.80
2022-08-09T10:15:25.365Z,24.50
2022-08-09T10:17:56.402Z,25.00
2022-08-09T10:20:32.442Z,25.20
2022-08-09T10:23:21.095Z,25.50
2022-08-09T10:26:05.971Z,25.50
2022-08-09T10:28:38.750Z,25.50
2022-08-09T10:34:11.215Z,25.50
2022-08-09T10:36:46.866Z,25.40
2022-08-09T10:39:19.951Z,25.40
2022-08-09T10:41:48.627Z,25.50
2022-08-09T10:44:24.767Z,25.40
2022-08-09T10:48:13.315Z,25.00
2022-08-09T10:50:14.928Z,24.70
2022-08-09T10:53:05.224Z,24.60
2022-08-09T10:55:58.922Z,24.50
2022-08-09T10:58:33.693Z,24.40
2022-08-09T11:03:05.646Z,24.60
2022-08-09T11:04:30.922Z,24.50
2022-08-09T11:07:57.869Z,24.60
2022-08-09T11:11:00.914Z,24.60
2022-08-09T11:13:50.085Z,24.40
2022-08-09T11:16:37.438Z,24.30
2022-08-09T11:19:10.082Z,24.40
2022-08-09T11:22:10.852Z,24.30
2022-08-09T11:25:08.403Z,24.30
2022-08-09T11:28:05.637Z,24.30
2022-08-09T11:30:38.163Z,24.20
2022-08-09T11:33:11.238Z,24.20
2022-08-09T11:35:49.067Z,24.20
2022-08-09T11:38:22.588Z,24.20
2022-08-09T11:41:05.459Z,24.30
2022-08-09T11:43:43.206Z,24.20
2022-08-09T11:46:12.020Z,24.30
2022-08-09T11:48:52.290Z,24.40
2022-08-09T11:53:16.565Z,24.60
2022-08-09T11:54:21.549Z,24.60
2022-08-09T11:57:59.929Z,24.70
2022-08-09T12:00:27.674Z,24.90
2022-08-09T12:02:58.040Z,24.90
2022-08-09T12:05:42.410Z,24.80
2022-08-09T12:08:21.403Z,24.90
2022-08-09T12:10:52.893Z,25.10
2022-08-09T12:14:07.803Z,25.30
2022-08-09T12:16:30.547Z,25.30
2022-08-09T12:19:09.566Z,25.30
2022-08-09T12:21:50.808Z,25.30
2022-08-09T12:24:25.116Z,25.20
2022-08-09T12:29:09.976Z,25.30
2022-08-09T12:30:04.054Z,25.40
2022-08-09T12:32:48.372Z,25.30
2022-08-09T12:35:21.729Z,25.30
2022-08-09T12:37:52.007Z,25.30
2022-08-09T12:40:26.914Z,25.30
2022-08-09T12:42:57.237Z,25.20
2022-08-09T12:45:33.822Z,25.20
2022-08-09T12:48:20.070Z,25.20
2022-08-09T12:50:59.661Z,25.20
2022-08-09T12:53:37.110Z,25.40
2022-08-09T12:56:43.762Z,25.40
2022-08-09T12:59:10.548Z,25.40
2022-08-09T13:01:46.886Z,25.20
2022-08-09T13:04:36.807Z,25.20
2022-08-09T13:07:16.683Z,25.20
2022-08-09T13:09:55.380Z,25.10
2022-08-09T13:12:32.709Z,25.10
2022-08-09T13:15:10.472Z,25.10
2022-08-09T13:17:58.705Z,25.00
2022-08-09T13:22:34.112Z,25.00
2022-08-09T13:24:07.269Z,24.90
2022-08-09T13:26:36.740Z,25.00
2022-08-09T13:29:13.063Z,25.10
2022-08-09T13:32:17.448Z,25.00
2022-08-09T13:34:47.393Z,25.00
2022-08-09T13:37:24.790Z,25.30
2022-08-09T13:41:51.051Z,25.40
2022-08-09T13:42:58.228Z,25.20
2022-08-09T13:45:32.611Z,24.90
2022-08-09T13:48:15.651Z,24.60
2022-08-09T13:50:44.565Z,24.30
2022-08-09T13:53:18.239Z,24.10
2022-08-09T13:55:47.921Z,24.00
2022-08-09T13:58:16.850Z,24.00
2022-08-09T14:00:50.504Z,24.00
2022-08-09T14:04:05.028Z,24.00
2022-08-09T14:06:19.554Z,23.90
2022-08-09T14:08:56.480Z,23.90
2022-08-09T14:11:26.831Z,23.90
2022-08-09T14:14:23.758Z,24.00
2022-08-09T14:16:44.056Z,24.00
2022-08-09T14:19:12.687Z,24.10
2022-08-09T14:21:41.394Z,24.10
2022-08-09T14:24:18.652Z,24.10
2022-08-09T14:26:51.793Z,24.30
2022-08-09T14:30:15.156Z,24.30
2022-08-09T14:32:13.374Z,24.30
2022-08-09T14:34:55.374Z,24.20
2022-08-09T14:37:28.495Z,24.10
2022-08-09T14:40:12.445Z,24.20
2022-08-09T14:42:41.562Z,24.20
2022-08-09T14:46:46.674Z,24.20
2022-08-09T14:48:02.539Z,24.20
2022-08-09T14:50:34.480Z,24.20
2022-08-09T14:53:11.135Z,24.30
2022-08-09T14:55:47.697Z,24.30
2022-08-09T14:58:19.269Z,24.30
2022-08-09T15:00:51.106Z,24.30
2022-08-09T15:03:21.287Z,24.30
2022-08-09T15:05:53.808Z,24.40
2022-08-09T15:08:25.278Z,24.40
2022-08-09T15:11:00.906Z,24.30
2022-08-09T15:13:48.691Z,24.30
2022-08-09T15:16:22.485Z,24.20
2022-08-09T15:18:52.216Z,24.10
2022-08-09T15:21:57.107Z,24.10
2022-08-09T15:24:13.919Z,24.00
2022-08-09T15:26:47.513Z,24.00
2022-08-09T15:30:58.947Z,24.00
2022-08-09T15:32:29.162Z,23.90
2022-08-09T15:35:00.562Z,23.80
2022-08-09T15:38:10.997Z,23.60
2022-08-09T15:40:32.291Z,23.60
2022-08-09T15:43:03.493Z,23.50
2022-08-09T15:46:07.576Z,23.50
2022-08-09T15:48:28.703Z,23.50
2022-08-09T15:50:58.161Z,23.40
2022-08-09T15:54:03.985Z,23.40
2022-08-09T15:56:29.400Z,23.40
2022-08-09T15:59:01.135Z,23.40
2022-08-09T16:01:31.434Z,23.50
2022-08-09T16:04:04.393Z,23.50
2022-08-09T16:06:35.642Z,23.60
2022-08-09T16:09:07.055Z,23.60
2022-08-09T16:11:35.725Z,23.80
2022-08-09T16:14:08.115Z,23.90
2022-08-09T16:16:39.080Z,24.00
2022-08-09T16:19:13.412Z,24.10
2022-08-09T16:21:48.739Z,24.20
2022-08-09T16:24:33.678Z,24.30
2022-08-09T16:27:05.162Z,24.40
2022-08-09T16:29:37.482Z,24.50
2022-08-09T16:32:35.017Z,24.60
2022-08-09T16:35:04.012Z,24.60
2022-08-09T16:37:55.202Z,24.50
2022-08-09T16:40:29.710Z,24.50
2022-08-09T16:43:08.799Z,24.60
2022-08-09T16:45:44.370Z,24.60
2022-08-09T16:48:39.467Z,24.40
2022-08-09T16:51:07.912Z,24.30
2022-08-09T16:54:02.431Z,24.00
2022-08-09T16:56:31.534Z,23.80
2022-08-09T16:59:01.089Z,23.80
2022-08-09T17:01:33.883Z,23.60
2022-08-09T17:04:05.430Z,23.60
2022-08-09T17:08:40.958Z,23.50
2022-08-09T17:09:46.195Z,23.40
2022-08-09T17:12:12.869Z,23.30
2022-08-09T17:14:47.664Z,23.30
2022-08-09T17:17:26.369Z,23.30
2022-08-09T17:20:29.220Z,23.20
2022-08-09T17:22:52.257Z,23.20
2022-08-09T17:25:23.677Z,23.10
2022-08-09T17:27:54.869Z,23.00
2022-08-09T17:30:25.871Z,23.00
2022-08-09T17:33:04.866Z,23.00
2022-08-09T17:35:41.100Z,23.00
2022-08-09T17:38:13.254Z,22.90
2022-08-09T17:40:58.581Z,22.80
2022-08-09T17:43:34.357Z,22.80
2022-08-09T17:46:07.541Z,22.70
2022-08-09T17:48:51.895Z,22.60
2022-08-09T17:51:22.720Z,22.60
2022-08-09T17:53:55.081Z,22.60
2022-08-09T17:56:28.458Z,22.50
2022-08-09T17:58:59.789Z,22.40
2022-08-09T18:02:03.702Z,22.40
2022-08-09T18:04:20.699Z,22.30
2022-08-09T18:06:54.617Z,22.30
2022-08-09T18:09:40.332Z,22.20
2022-08-09T18:12:17.147Z,22.10
2022-08-09T18:14:54.904Z,22.10
2022-08-09T18:18:01.204Z,22.00
2022-08-09T18:20:54.999Z,22.00
2022-08-09T18:23:07.092Z,21.90
2022-08-09T18:25:51.076Z,21.90
2022-08-09T18:30:35.613Z,21.80
2022-08-09T18:31:14.215Z,21.80
2022-08-09T18:33:53.198Z,21.70
2022-08-09T18:36:31.839Z,21.60
2022-08-09T18:39:02.024Z,21.50
2022-08-09T18:41:34.327Z,21.40
2022-08-09T18:44:12.608Z,21.20
2022-08-09T18:46:47.090Z,21.20
2022-08-09T18:49:20.277Z,21.10
2022-08-09T18:51:55.544Z,21.00
2022-08-09T18:54:29.741Z,21.00
2022-08-09T18:57:06.011Z,20.90
2022-08-09T18:59:48.577Z,20.80
2022-08-09T19:02:18.695Z,20.80
2022-08-09T19:05:14.791Z,20.80
2022-08-09T19:07:38.512Z,20.70
2022-08-09T19:10:15.720Z,20.70
2022-08-09T19:12:51.457Z,20.70
2022-08-09T19:15:36.239Z,20.60
2022-08-09T19:18:05.903Z,20.60
2022-08-09T19:20:45.516Z,20.60
2022-08-09T19:24:33.532Z,20.60
2022-08-09T19:26:15.960Z,20.50
2022-08-09T19:28:48.899Z,20.40
2022-08-09T19:31:17.709Z,20.40
2022-08-09T19:33:46.294Z,20.30
2022-08-09T19:36:14.923Z,20.20
2022-08-09T19:38:50.102Z,20.20
2022-08-09T19:41:33.199Z,20.20
2022-08-09T19:44:04.398Z,20.20
2022-08-09T19:46:35.759Z,20.10
2022-08-09T19:50:07.498Z,20.00
2022-08-09T19:52:10.054Z,19.90
2022-08-09T19:54:42.369Z,19.90
2022-08-09T19:57:11.708Z,19.80
2022-08-09T20:00:06.627Z,19.70
2022-08-09T20:04:08.158Z,19.60
2022-08-09T20:05:26.816Z,19.50
2022-08-09T20:07:58.523Z,19.40
2022-08-09T20:10:34.755Z,19.40
2022-08-09T20:13:08.045Z,19.30
2022-08-09T20:16:34.152Z,19.20
2022-08-09T20:18:28.172Z,19.10
2022-08-09T20:20:57.816Z,19.00
2022-08-09T20:23:38.833Z,19.00
2022-08-09T20:26:13.001Z,19.00
2022-08-09T20:28:48.871Z,18.90
2022-08-09T20:31:19.090Z,18.90
2022-08-09T20:33:52.414Z,18.80
2022-08-09T20:36:28.337Z,18.80
2022-08-09T20:39:27.976Z,18.70
2022-08-09T20:41:49.134Z,18.70
2022-08-09T20:44:26.919Z,18.60
2022-08-09T20:46:57.793Z,18.60
2022-08-09T20:49:28.526Z,18.60
2022-08-09T20:51:57.805Z,18.50
2022-08-09T20:54:29.143Z,18.50
2022-08-09T20:56:59.944Z,18.40
2022-08-09T21:00:20.726Z,18.40
2022-08-09T21:02:18.681Z,18.40
2022-08-09T21:05:51.133Z,18.30
2022-08-09T21:07:38.856Z,18.30
2022-08-09T21:10:12.012Z,18.20
2022-08-09T21:15:34.627Z,18.30
2022-08-09T21:18:23.029Z,18.30
2022-08-09T21:20:54.381Z,18.20
2022-08-09T21:23:26.599Z,18.30
2022-08-09T21:26:12.361Z,18.20
2022-08-09T21:28:55.528Z,18.20
2022-08-09T21:31:49.252Z,18.10
2022-08-09T21:34:16.191Z,18.00
2022-08-09T21:36:56.964Z,18.00
2022-08-09T21:39:27.988Z,17.90
2022-08-09T21:42:10.995Z,17.90
2022-08-09T21:44:42.856Z,17.90
2022-08-09T21:47:17.345Z,17.80
2022-08-09T21:49:48.218Z,17.80
2022-08-09T21:52:20.660Z,17.70
2022-08-09T21:55:04.337Z,17.70
2022-08-09T21:57:38.519Z,17.60
2022-08-09T22:00:32.114Z,17.60
2022-08-09T22:03:04.749Z,17.60
2022-08-09T22:05:37.226Z,17.60
2022-08-09T22:08:13.248Z,17.60
2022-08-09T22:11:49.742Z,17.60
2022-08-09T22:13:34.753Z,17.60
2022-08-09T22:16:08.368Z,17.50
2022-08-09T22:18:38.380Z,17.60
2022-08-09T22:21:22.139Z,17.50
2022-08-09T22:24:01.560Z,17.50
2022-08-09T22:26:34.988Z,17.40
2022-08-09T22:29:09.428Z,17.30
2022-08-09T22:31:50.336Z,17.30
2022-08-09T22:34:26.479Z,17.30
2022-08-09T22:36:55.999Z,17.20
2022-08-09T22:39:55.545Z,17.10
2022-08-09T22:42:21.943Z,17.10
2022-08-09T22:45:00.310Z,17.00
2022-08-09T22:48:34.689Z,17.00
2022-08-09T22:50:32.931Z,17.00
2022-08-09T22:53:03.701Z,17.00
2022-08-09T22:56:06.395Z,17.00
2022-08-09T22:58:32.426Z,17.10
2022-08-09T23:01:03.401Z,17.00
2022-08-09T23:04:03.399Z,17.00
2022-08-09T23:06:32.604Z,16.90
2022-08-09T23:09:07.873Z,16.90
2022-08-09T23:11:36.458Z,16.80
2022-08-09T23:14:10.105Z,16.80
2022-08-09T23:16:46.230Z,16.80
2022-08-09T23:19:16.000Z,16.80
2022-08-09T23:21:44.630Z,16.80
2022-08-09T23:24:13.157Z,16.70
2022-08-09T23:26:41.996Z,16.70
2022-08-09T23:29:13.851Z,16.60
2022-08-09T23:31:43.271Z,16.50
2022-08-09T23:34:11.877Z,16.40
2022-08-09T23:36:41.677Z,16.30
2022-08-09T23:39:10.244Z,16.20
2022-08-09T23:41:38.789Z,16.10
2022-08-09T23:44:07.330Z,16.10
2022-08-09T23:46:35.939Z,16.00
2022-08-09T23:49:04.888Z,16.00
2022-08-09T23:51:33.347Z,16.00
2022-08-09T23:54:03.630Z,15.90
2022-08-09T23:56:52.979Z,15.90
2022-08-09T23:59:23.143Z,15.80
